Indian Springs, Alabama
Current Conditions -  °F | °C
As of 5:53 PM on Sunday 25 Jan 2015 (Local Time) from KEET Reporting Station
Broken Clouds Broken Clouds  
Wind Chill: 58°   Ceiling: 8500
Heat Index: 58°   Visibility: 10mi
Dew Point: 36°   Wind: 5mph
Humidity: 44%   Direction: 210°SSW
Pressure: 29.75"   Gusts: NA
Location:  33.3024°N, 86.8026°W
Report Text: KEET 252353Z AUTO 21004KT 10SM FEW065 BKN085 BKN100 14/02 A2975 RMK AO2 LTG DSNT W AND NW SLP073 T01440022 10167 20139 51003
Loading
Personal Weather Stations






























Interactive Weather Map New forecast layout! Learn more

10-Day Weather Forecast

Advertisements
Track Severe Weather on mobile